Portada
METAR-TAF:

METAR-TAF

Aeroports :

Aeroport de Lampedusa

Lampedusa, Itàlia

latitud: 35-30N, longitud: 012-36E, altitud: 16 m

Observació

L'informe es va fer fa 1 hora i 14 minuts, a les 07:50 UTC
Vent 5 kt del Nord-Est
Temperatura 19°C
Humitat 78%
Pressió 1013 hPa
Visibilitat 10 km o més
Núvols disperses a una alçada de 2000 ft
pluja

METAR: LICD 170750Z 05005KT 9999 -RA SCT020 19/15 Q1013

Hora: 10:04 (09:04 UTC)

Pronòstic

L'informe es va fer fa 4 hores i 4 minuts, a les 05:00 UTC
Pronòstic vàlid del 17 a les 06 UTC al 18 a les 06 UTC
Vent 12 kt del Nord-Est
Visibilitat 10 km o més
Núvols disperses a una alçada de 3000 ft
Temporalment
l' 17 a les 06 UTC al 17 a les 12 UTC
tempesta, pluja
Temporalment
l' 17 a les 15 UTC al 17 a les 21 UTC
Visibilitat: 4000 m
tempesta, pluja
Temporalment
l' 17 a les 21 UTC al 18 a les 06 UTC
Visibilitat: 4000 m
xàfecs de pluja

TAF: LICD 170500Z 1706/1806 04012KT 9999 SCT030 TEMPO 1706/1712 TSRA TEMPO 1715/1721 4000 TSRA TEMPO 1721/1806 4000 SHRA

Observacions i pronòstics meteorològics de més de 4000 aeroports (METAR i TAF).

Les estacions disponibles són els punts grocs i vermells al mapa.

Posi el ratolí al punt desitjat per veure el nom de l'estació.

Feu clic per veure les observacions i els pronòstics meteorològics.

Per canviar el mapa: feu clic els botons verds amb una creu de color negre per apropar; al botó verd amb un guió per allunyar la imatge; o en les fletxes verdes per a mapes adjacents.


METAR-TAF: